createdAt,value
2023-04-05T00:01:13.714Z,58.49
2023-04-05T00:03:42.919Z,59.15
2023-04-05T00:06:13.066Z,58.84
2023-04-05T00:08:41.786Z,58.80
2023-04-05T00:11:09.857Z,59.13
2023-04-05T00:13:38.239Z,59.41
2023-04-05T00:16:08.899Z,59.94
2023-04-05T00:18:38.466Z,60.42
2023-04-05T00:21:07.483Z,60.14
2023-04-05T00:23:38.595Z,60.11
2023-04-05T00:26:06.989Z,59.76
2023-04-05T00:28:35.382Z,59.45
2023-04-05T00:31:03.644Z,59.06
2023-04-05T00:33:33.220Z,59.10
2023-04-05T00:36:11.505Z,59.34
2023-04-05T00:38:40.562Z,59.76
2023-04-05T00:41:09.109Z,59.86
2023-04-05T00:43:37.247Z,60.16
2023-04-05T00:46:06.539Z,60.32
2023-04-05T00:48:37.075Z,60.06
2023-04-05T00:51:09.218Z,59.96
2023-04-05T00:53:38.299Z,59.79
2023-04-05T00:56:07.507Z,59.87
2023-04-05T00:58:35.621Z,60.02
2023-04-05T01:01:13.806Z,60.25
2023-04-05T01:03:53.689Z,60.38
2023-04-05T01:06:54.266Z,59.85
2023-04-05T01:09:43.702Z,59.86
2023-04-05T01:12:18.448Z,60.11
2023-04-05T01:14:50.064Z,59.70
2023-04-05T01:17:22.197Z,59.64
2023-04-05T01:19:54.308Z,59.86
2023-04-05T01:23:25.223Z,59.57
2023-04-05T01:26:33.575Z,59.59
2023-04-05T01:29:35.951Z,59.36
2023-04-05T01:32:16.166Z,60.25
2023-04-05T01:35:03.638Z,60.58
2023-04-05T01:37:36.192Z,59.72
2023-04-05T01:40:06.300Z,60.18
2023-04-05T01:42:34.634Z,59.97
2023-04-05T01:45:04.605Z,60.36
2023-04-05T01:47:33.149Z,60.42
2023-04-05T01:50:01.453Z,60.41
2023-04-05T01:52:29.573Z,60.89
2023-04-05T01:54:57.648Z,61.41
2023-04-05T01:57:25.822Z,61.11
2023-04-05T01:59:53.927Z,61.90
2023-04-05T02:02:23.475Z,62.32
2023-04-05T02:04:51.674Z,62.11
2023-04-05T02:07:19.767Z,62.08
2023-04-05T02:09:47.859Z,62.55
2023-04-05T02:12:15.931Z,62.70
2023-04-05T02:14:43.978Z,62.84
2023-04-05T02:17:12.653Z,61.89
2023-04-05T02:19:42.224Z,61.53
2023-04-05T02:22:10.544Z,61.59
2023-04-05T02:24:38.775Z,61.17
2023-04-05T02:27:08.300Z,61.09
2023-04-05T02:29:36.445Z,61.28
2023-04-05T02:32:04.796Z,62.68
2023-04-05T02:34:33.549Z,63.71
2023-04-05T02:37:03.109Z,64.29
2023-04-05T02:39:31.249Z,64.65
2023-04-05T02:41:59.882Z,65.21
2023-04-05T02:44:29.447Z,65.49
2023-04-05T02:46:57.579Z,65.65
2023-04-05T02:49:25.783Z,65.52
2023-04-05T02:51:55.737Z,65.69
2023-04-05T02:54:25.256Z,65.77
2023-04-05T02:56:54.591Z,65.62
2023-04-05T02:59:23.004Z,65.55
2023-04-05T03:01:51.154Z,65.64
2023-04-05T03:04:19.244Z,65.81
2023-04-05T03:06:50.966Z,65.88
2023-04-05T03:09:19.075Z,66.21
2023-04-05T03:11:48.532Z,65.87
2023-04-05T03:14:16.692Z,65.86
2023-04-05T03:16:44.814Z,66.23
2023-04-05T03:19:12.980Z,66.15
2023-04-05T03:21:41.155Z,66.06
2023-04-05T03:24:09.368Z,65.95
2023-04-05T03:26:37.503Z,66.41
2023-04-05T03:29:07.161Z,66.21
2023-04-05T03:31:35.305Z,66.51
2023-04-05T03:34:03.525Z,66.96
2023-04-05T03:36:41.748Z,66.42
2023-04-05T03:39:10.803Z,66.54
2023-04-05T03:41:39.190Z,66.26
2023-04-05T03:44:09.951Z,65.58
2023-04-05T03:46:38.950Z,66.14
2023-04-05T03:49:07.256Z,66.52
2023-04-05T03:51:35.500Z,66.29
2023-04-05T03:54:03.641Z,66.52
2023-04-05T03:56:31.813Z,66.44
2023-04-05T03:59:00.064Z,65.70
2023-04-05T04:01:29.602Z,65.59
2023-04-05T04:03:57.752Z,66.17
2023-04-05T04:06:26.668Z,65.63
2023-04-05T04:08:54.787Z,65.60
2023-04-05T04:11:22.878Z,64.46
2023-04-05T04:13:51.732Z,64.71
2023-04-05T04:16:19.880Z,64.12
2023-04-05T04:18:49.487Z,64.77
2023-04-05T04:21:19.117Z,65.28
2023-04-05T04:23:47.313Z,65.27
2023-04-05T04:26:15.406Z,65.44
2023-04-05T04:28:44.667Z,65.47
2023-04-05T04:31:15.589Z,64.95
2023-04-05T04:33:43.947Z,64.63
2023-04-05T04:36:14.349Z,63.50
2023-04-05T04:38:46.511Z,63.44
2023-04-05T04:41:17.650Z,63.61
2023-04-05T04:43:45.756Z,63.03
2023-04-05T04:46:19.042Z,64.15
2023-04-05T04:48:48.150Z,64.87
2023-04-05T04:51:17.587Z,65.28
2023-04-05T04:53:45.685Z,64.46
2023-04-05T04:56:14.018Z,64.58
2023-04-05T04:58:42.134Z,65.23
2023-04-05T05:01:10.722Z,65.65
2023-04-05T05:03:39.262Z,65.55
2023-04-05T05:06:08.289Z,66.07
2023-04-05T05:08:38.272Z,65.87
2023-04-05T05:11:09.053Z,65.91
2023-04-05T05:13:37.348Z,65.81
2023-04-05T05:16:06.844Z,65.46
2023-04-05T05:18:34.968Z,65.48
2023-04-05T05:21:03.025Z,65.95
2023-04-05T05:23:31.186Z,65.93
2023-04-05T05:26:01.310Z,65.83
2023-04-05T05:28:29.352Z,65.43
2023-04-05T05:30:57.506Z,65.26
2023-04-05T05:33:26.439Z,65.05
2023-04-05T05:35:54.521Z,64.21
2023-04-05T05:38:23.569Z,64.13
2023-04-05T05:40:57.957Z,63.88
2023-04-05T05:43:27.441Z,63.52
2023-04-05T05:45:55.604Z,63.31
2023-04-05T05:48:23.818Z,62.82
2023-04-05T05:50:51.984Z,62.82
2023-04-05T05:53:20.272Z,62.93
2023-04-05T05:55:48.433Z,62.55
2023-04-05T05:58:16.903Z,62.35
2023-04-05T06:00:49.891Z,62.32
2023-04-05T06:03:19.272Z,62.56
2023-04-05T06:05:53.080Z,61.48
2023-04-05T06:08:21.204Z,60.94
2023-04-05T06:10:50.418Z,59.78
2023-04-05T06:13:18.571Z,59.73
2023-04-05T06:15:49.200Z,58.84
2023-04-05T06:18:17.980Z,59.10
2023-04-05T06:20:46.111Z,59.08
2023-04-05T06:23:14.877Z,58.15
2023-04-05T06:25:44.991Z,56.96
2023-04-05T06:28:13.171Z,55.64
2023-04-05T06:30:41.630Z,55.41
2023-04-05T06:33:11.424Z,55.00
2023-04-05T06:35:39.610Z,55.09
2023-04-05T06:38:07.737Z,55.33
2023-04-05T06:40:36.100Z,55.06
2023-04-05T06:43:04.208Z,55.24
2023-04-05T06:45:32.454Z,55.24
2023-04-05T06:48:00.844Z,54.91
2023-04-05T06:50:30.432Z,54.39
2023-04-05T06:52:58.693Z,53.58
2023-04-05T06:55:26.992Z,53.75
2023-04-05T06:57:55.160Z,53.70
2023-04-05T07:00:23.843Z,54.14
2023-04-05T07:02:52.061Z,54.33
2023-04-05T07:05:20.246Z,54.23
2023-04-05T07:07:49.740Z,54.61
2023-04-05T07:10:17.906Z,54.48
2023-04-05T07:12:47.496Z,54.08
2023-04-05T07:15:15.966Z,54.27
2023-04-05T07:17:44.139Z,54.22
2023-04-05T07:20:14.237Z,54.25
2023-04-05T07:22:42.428Z,54.86
2023-04-05T07:25:12.582Z,55.12
2023-04-05T07:27:40.718Z,53.73
2023-04-05T07:30:10.296Z,53.76
2023-04-05T07:32:38.630Z,53.32
2023-04-05T07:35:08.490Z,53.56
2023-04-05T07:37:37.180Z,53.67
2023-04-05T07:40:07.408Z,53.47
2023-04-05T07:42:36.981Z,53.19
2023-04-05T07:45:06.294Z,53.15
2023-04-05T07:47:35.456Z,51.78
2023-04-05T07:50:03.967Z,51.42
2023-04-05T07:52:32.086Z,51.42
2023-04-05T07:55:00.286Z,52.15
2023-04-05T07:57:28.385Z,52.26
2023-04-05T07:59:57.848Z,51.07
2023-04-05T08:02:26.037Z,51.17
2023-04-05T08:04:54.235Z,50.51
2023-04-05T08:07:22.361Z,50.78
2023-04-05T08:09:50.443Z,50.45
2023-04-05T08:12:18.546Z,50.38
2023-04-05T08:14:46.693Z,50.24
2023-04-05T08:17:17.908Z,49.49
2023-04-05T08:19:46.088Z,49.03
2023-04-05T08:22:16.457Z,47.52
2023-04-05T08:24:44.622Z,47.39
2023-04-05T08:27:13.078Z,47.09
2023-04-05T08:29:41.593Z,47.35
2023-04-05T08:32:09.991Z,47.68
2023-04-05T08:34:39.692Z,46.64
2023-04-05T08:37:07.875Z,43.67
2023-04-05T08:39:36.561Z,43.10
2023-04-05T08:42:12.798Z,42.66
2023-04-05T08:44:43.044Z,43.45
2023-04-05T08:47:18.264Z,43.74
2023-04-05T08:49:48.844Z,42.68
2023-04-05T08:52:17.428Z,42.60
2023-04-05T08:54:45.586Z,41.44
2023-04-05T08:57:15.425Z,40.19
2023-04-05T08:59:46.815Z,41.03
2023-04-05T09:02:19.550Z,40.72
2023-04-05T09:04:50.084Z,41.15
2023-04-05T09:07:20.899Z,40.56
2023-04-05T09:09:54.590Z,40.82
2023-04-05T09:12:24.508Z,40.39
2023-04-05T09:14:53.734Z,41.30
2023-04-05T09:17:23.855Z,40.81
2023-04-05T09:19:53.307Z,41.12
2023-04-05T09:22:24.045Z,40.96
2023-04-05T09:24:52.167Z,41.07
2023-04-05T09:27:21.610Z,42.16
2023-04-05T09:29:51.390Z,42.30
2023-04-05T09:32:21.206Z,42.27
2023-04-05T09:34:51.728Z,43.39
2023-04-05T09:37:23.629Z,42.13
2023-04-05T09:40:03.773Z,41.83
2023-04-05T09:42:45.014Z,42.11
2023-04-05T09:45:14.089Z,41.98
2023-04-05T09:47:42.518Z,42.12
2023-04-05T09:50:21.338Z,41.66
2023-04-05T09:52:52.483Z,41.82
2023-04-05T09:55:30.039Z,41.70
2023-04-05T09:57:58.278Z,40.92
2023-04-05T10:00:26.593Z,40.19
2023-04-05T10:02:57.185Z,40.84
2023-04-05T10:05:28.345Z,39.73
2023-04-05T10:07:58.129Z,40.55
2023-04-05T10:10:26.707Z,39.78
2023-04-05T10:12:55.772Z,39.64
2023-04-05T10:15:26.725Z,39.76
2023-04-05T10:18:05.414Z,38.92
2023-04-05T10:20:40.520Z,38.30
2023-04-05T10:23:17.522Z,38.77
2023-04-05T10:26:01.806Z,37.92
2023-04-05T10:28:33.910Z,36.35
2023-04-05T10:31:16.837Z,35.14
2023-04-05T10:33:57.067Z,35.71
2023-04-05T10:36:40.473Z,36.49
2023-04-05T10:39:17.843Z,35.93
2023-04-05T10:41:53.769Z,35.09
2023-04-05T10:44:26.135Z,35.35
2023-04-05T10:46:58.038Z,35.61
2023-04-05T10:49:38.117Z,35.91
2023-04-05T10:52:08.107Z,35.88
2023-04-05T10:54:38.527Z,35.61
2023-04-05T10:57:10.238Z,34.73
2023-04-05T10:59:45.535Z,35.29
2023-04-05T11:02:15.334Z,35.17
2023-04-05T11:04:43.799Z,34.56
2023-04-05T11:07:14.833Z,35.07
2023-04-05T11:09:57.671Z,35.45
2023-04-05T11:13:05.677Z,35.29
2023-04-05T11:15:35.134Z,34.68
2023-04-05T11:18:09.037Z,34.11
2023-04-05T11:20:46.385Z,34.59
2023-04-05T11:23:18.656Z,34.79
2023-04-05T11:25:53.191Z,34.36
2023-04-05T11:28:26.468Z,35.09
2023-04-05T11:30:58.565Z,35.48
2023-04-05T11:33:59.993Z,36.31
2023-04-05T11:36:33.669Z,36.10
2023-04-05T11:39:27.875Z,37.00
2023-04-05T11:42:03.484Z,37.14
2023-04-05T11:44:44.497Z,36.74
2023-04-05T11:47:13.596Z,37.04
2023-04-05T11:49:43.055Z,36.78
2023-04-05T11:52:17.079Z,36.60
2023-04-05T11:54:50.054Z,36.72
2023-04-05T11:57:23.808Z,37.17
2023-04-05T11:59:53.687Z,37.35
2023-04-05T12:02:22.944Z,36.47
2023-04-05T12:04:57.239Z,37.12
2023-04-05T12:07:29.233Z,36.49
2023-04-05T12:10:08.352Z,36.25
2023-04-05T12:12:40.189Z,35.91
2023-04-05T12:15:14.087Z,36.68
2023-04-05T12:17:45.647Z,36.09
2023-04-05T12:20:16.101Z,35.81
2023-04-05T12:22:46.179Z,36.05
2023-04-05T12:25:15.592Z,35.36
2023-04-05T12:27:45.567Z,35.31
2023-04-05T12:30:17.107Z,35.62
2023-04-05T12:32:51.872Z,34.60
2023-04-05T12:35:21.904Z,33.36
2023-04-05T12:37:52.452Z,33.47
2023-04-05T12:40:25.110Z,33.43
2023-04-05T12:43:01.971Z,32.77
2023-04-05T12:45:31.224Z,32.32
2023-04-05T12:48:01.223Z,32.38
2023-04-05T12:50:31.200Z,31.94
2023-04-05T12:53:02.144Z,31.35
2023-04-05T12:55:30.960Z,31.43
2023-04-05T12:58:03.673Z,30.63
2023-04-05T13:00:32.708Z,32.51
2023-04-05T13:03:01.241Z,33.31
2023-04-05T13:05:31.237Z,32.27
2023-04-05T13:07:59.781Z,32.28
2023-04-05T13:10:27.960Z,31.74
2023-04-05T13:12:56.086Z,32.27
2023-04-05T13:15:25.807Z,31.89
2023-04-05T13:17:55.072Z,32.65
2023-04-05T13:20:23.436Z,32.34
2023-04-05T13:22:52.017Z,32.09
2023-04-05T13:25:20.331Z,32.44
2023-04-05T13:27:48.616Z,33.47
2023-04-05T13:30:17.234Z,32.76
2023-04-05T13:32:46.952Z,32.55
2023-04-05T13:35:15.125Z,32.14
2023-04-05T13:37:43.245Z,32.23
2023-04-05T13:40:12.145Z,31.16
2023-04-05T13:42:40.277Z,31.55
2023-04-05T13:45:09.714Z,32.48
2023-04-05T13:47:37.912Z,32.46
2023-04-05T13:50:09.154Z,33.30
2023-04-05T13:52:37.453Z,32.97
2023-04-05T13:55:06.421Z,33.28
2023-04-05T13:57:34.558Z,34.15
2023-04-05T14:00:02.907Z,34.50
2023-04-05T14:02:31.143Z,34.64
2023-04-05T14:04:59.277Z,34.90
2023-04-05T14:07:29.146Z,35.57
2023-04-05T14:09:57.540Z,35.31
2023-04-05T14:12:25.916Z,35.27
2023-04-05T14:14:54.246Z,35.53
2023-04-05T14:17:22.582Z,35.53
2023-04-05T14:19:50.875Z,36.13
2023-04-05T14:22:21.113Z,35.96
2023-04-05T14:24:50.736Z,35.87
2023-04-05T14:27:22.156Z,36.13
2023-04-05T14:29:52.453Z,36.26
2023-04-05T14:32:20.674Z,36.22
2023-04-05T14:34:49.298Z,36.20
2023-04-05T14:37:18.104Z,36.46
2023-04-05T14:39:46.978Z,36.54
2023-04-05T14:42:16.627Z,36.70
2023-04-05T14:44:44.917Z,36.56
2023-04-05T14:47:13.185Z,36.80
2023-04-05T14:49:41.430Z,36.61
2023-04-05T14:52:09.821Z,36.88
2023-04-05T14:54:38.055Z,36.08
2023-04-05T14:57:06.294Z,36.88
2023-04-05T14:59:35.991Z,37.01
2023-04-05T15:02:04.789Z,36.94
2023-04-05T15:04:33.152Z,37.12
2023-04-05T15:07:01.349Z,37.14
2023-04-05T15:09:29.588Z,36.78
2023-04-05T15:11:57.853Z,37.04
2023-04-05T15:14:32.080Z,37.33
2023-04-05T15:17:02.258Z,37.41
2023-04-05T15:19:30.969Z,37.28
2023-04-05T15:21:59.361Z,37.14
2023-04-05T15:24:27.649Z,37.25
2023-04-05T15:27:01.761Z,37.39
2023-04-05T15:29:30.154Z,37.94
2023-04-05T15:31:58.544Z,37.86
2023-04-05T15:34:29.577Z,38.08
2023-04-05T15:36:58.275Z,38.38
2023-04-05T15:39:26.976Z,38.14
2023-04-05T15:41:57.322Z,38.42
2023-04-05T15:44:26.622Z,39.79
2023-04-05T15:46:54.840Z,38.75
2023-04-05T15:49:23.021Z,38.92
2023-04-05T15:51:52.684Z,39.02
2023-04-05T15:54:21.032Z,38.53
2023-04-05T15:56:49.418Z,38.63
2023-04-05T15:59:17.714Z,39.31
2023-04-05T16:01:46.069Z,38.55
2023-04-05T16:04:14.525Z,39.71
2023-04-05T16:06:42.861Z,39.76
2023-04-05T16:09:12.493Z,40.07
2023-04-05T16:11:40.857Z,39.99
2023-04-05T16:14:11.350Z,39.94
2023-04-05T16:16:50.568Z,40.15
2023-04-05T16:19:23.449Z,40.42
2023-04-05T16:21:52.801Z,40.33
2023-04-05T16:24:22.552Z,40.36
2023-04-05T16:26:51.604Z,40.60
2023-04-05T16:29:19.874Z,41.40
2023-04-05T16:31:48.198Z,41.82
2023-04-05T16:34:16.864Z,42.09
2023-04-05T16:36:45.117Z,41.64
2023-04-05T16:39:13.366Z,41.50
2023-04-05T16:41:43.070Z,41.08
2023-04-05T16:44:11.467Z,41.60
2023-04-05T16:46:40.424Z,41.61
2023-04-05T16:49:08.645Z,41.65
2023-04-05T16:51:37.249Z,40.39
2023-04-05T16:54:05.830Z,41.00
2023-04-05T16:56:34.147Z,40.91
2023-04-05T16:59:06.740Z,41.51
2023-04-05T17:01:35.979Z,41.53
2023-04-05T17:04:04.510Z,41.61
2023-04-05T17:06:33.505Z,41.72
2023-04-05T17:09:01.989Z,41.65
2023-04-05T17:11:30.536Z,41.92
2023-04-05T17:13:59.463Z,41.46
2023-04-05T17:16:29.375Z,41.97
2023-04-05T17:18:57.652Z,42.37
2023-04-05T17:21:26.388Z,42.58
2023-04-05T17:23:54.696Z,42.31
2023-04-05T17:26:24.140Z,42.07
2023-04-05T17:28:52.297Z,42.41
2023-04-05T17:31:20.635Z,42.85
2023-04-05T17:33:50.274Z,43.16
2023-04-05T17:36:18.931Z,43.80
2023-04-05T17:38:47.145Z,44.24
2023-04-05T17:41:15.473Z,44.83
2023-04-05T17:43:43.751Z,45.22
2023-04-05T17:46:14.751Z,44.69
2023-04-05T17:48:43.110Z,44.21
2023-04-05T17:51:12.730Z,44.76
2023-04-05T17:53:41.071Z,44.35
2023-04-05T17:56:09.401Z,44.73
2023-04-05T17:58:37.634Z,44.89
2023-04-05T18:01:06.050Z,45.24
2023-04-05T18:03:34.380Z,44.67
2023-04-05T18:06:02.698Z,44.45
2023-04-05T18:08:32.335Z,45.64
2023-04-05T18:11:01.349Z,46.20
2023-04-05T18:13:31.023Z,45.98
2023-04-05T18:16:00.621Z,46.75
2023-04-05T18:18:29.225Z,47.40
2023-04-05T18:21:01.746Z,47.46
2023-04-05T18:23:31.601Z,48.38
2023-04-05T18:25:59.876Z,48.69
2023-04-05T18:28:28.458Z,48.74
2023-04-05T18:30:56.708Z,47.87
2023-04-05T18:33:24.954Z,47.59
2023-04-05T18:35:53.628Z,47.93
2023-04-05T18:38:22.517Z,48.26
2023-04-05T18:40:59.599Z,48.46
2023-04-05T18:43:27.868Z,48.96
2023-04-05T18:45:56.180Z,49.36
2023-04-05T18:48:25.170Z,49.85
2023-04-05T18:50:53.806Z,49.94
2023-04-05T18:53:22.260Z,50.05
2023-04-05T18:55:55.030Z,50.02
2023-04-05T18:58:23.269Z,50.18
2023-04-05T19:00:51.650Z,50.04
2023-04-05T19:03:20.065Z,50.76
2023-04-05T19:05:51.556Z,50.77
2023-04-05T19:08:20.641Z,50.69
2023-04-05T19:10:48.883Z,50.88
2023-04-05T19:13:18.773Z,50.83
2023-04-05T19:15:47.262Z,51.32
2023-04-05T19:18:15.557Z,51.60
2023-04-05T19:20:43.809Z,52.08
2023-04-05T19:23:12.023Z,52.07
2023-04-05T19:25:40.599Z,52.92
2023-04-05T19:28:08.856Z,53.25
2023-04-05T19:30:41.235Z,53.34
2023-04-05T19:33:09.625Z,53.20
2023-04-05T19:35:37.983Z,53.39
2023-04-05T19:38:06.578Z,54.06
2023-04-05T19:40:34.856Z,54.52
2023-04-05T19:43:03.214Z,54.35
2023-04-05T19:45:32.934Z,54.38
2023-04-05T19:48:03.931Z,54.92
2023-04-05T19:50:56.289Z,55.28
2023-04-05T19:53:49.052Z,54.69
2023-04-05T19:56:21.824Z,55.17
2023-04-05T19:58:57.191Z,55.67
2023-04-05T20:01:35.685Z,55.85
2023-04-05T20:04:14.141Z,55.87
2023-04-05T20:06:43.607Z,56.27
2023-04-05T20:09:13.495Z,56.95
2023-04-05T20:11:43.653Z,57.39
2023-04-05T20:14:12.106Z,57.34
2023-04-05T20:16:40.597Z,57.40
2023-04-05T20:19:12.274Z,57.46
2023-04-05T20:21:41.275Z,58.23
2023-04-05T20:24:11.250Z,58.76
2023-04-05T20:26:39.799Z,59.03
2023-04-05T20:29:11.886Z,59.17
2023-04-05T20:31:40.424Z,59.05
2023-04-05T20:34:14.730Z,57.43
2023-04-05T20:36:49.345Z,57.38
2023-04-05T20:39:18.596Z,57.56
2023-04-05T20:41:47.654Z,57.57
2023-04-05T20:44:16.247Z,57.45
2023-04-05T20:46:44.549Z,57.64
2023-04-05T20:49:14.476Z,57.88
2023-04-05T20:51:43.212Z,58.14
2023-04-05T20:54:11.794Z,58.38
2023-04-05T20:56:40.947Z,58.30
2023-04-05T20:59:09.541Z,58.31
2023-04-05T21:01:38.586Z,58.77
2023-04-05T21:04:07.197Z,59.27
2023-04-05T21:06:37.407Z,59.74
2023-04-05T21:09:06.505Z,60.30
2023-04-05T21:11:34.878Z,60.78
2023-04-05T21:14:03.304Z,60.73
2023-04-05T21:16:31.903Z,60.80
2023-04-05T21:19:00.137Z,61.17
2023-04-05T21:21:28.381Z,60.77
2023-04-05T21:23:58.006Z,60.92
2023-04-05T21:26:26.234Z,60.90
2023-04-05T21:28:54.502Z,60.75
2023-04-05T21:31:22.776Z,61.05
2023-04-05T21:33:51.026Z,60.94
2023-04-05T21:36:19.224Z,61.17
2023-04-05T21:38:47.482Z,61.46
2023-04-05T21:41:17.075Z,61.46
2023-04-05T21:43:45.283Z,61.13
2023-04-05T21:46:13.574Z,60.96
2023-04-05T21:48:41.854Z,60.84
2023-04-05T21:51:10.217Z,61.46
2023-04-05T21:53:38.438Z,61.64
2023-04-05T21:56:06.779Z,61.95
2023-04-05T21:58:36.373Z,61.62
2023-04-05T22:01:04.766Z,61.61
2023-04-05T22:03:33.087Z,62.03
2023-04-05T22:06:02.701Z,62.30
2023-04-05T22:08:33.956Z,62.42
2023-04-05T22:11:02.398Z,61.78
2023-04-05T22:13:30.640Z,61.69
2023-04-05T22:16:00.404Z,61.40
2023-04-05T22:18:28.996Z,61.43
2023-04-05T22:20:57.348Z,61.56
2023-04-05T22:23:25.770Z,61.73
2023-04-05T22:25:54.092Z,61.05
2023-04-05T22:28:22.936Z,61.61
2023-04-05T22:30:51.279Z,61.88
2023-04-05T22:33:20.917Z,62.35
2023-04-05T22:35:49.193Z,62.18
2023-04-05T22:38:17.465Z,62.31
2023-04-05T22:40:46.378Z,61.89
2023-04-05T22:43:14.746Z,62.00
2023-04-05T22:45:43.007Z,61.89
2023-04-05T22:48:11.385Z,62.09
2023-04-05T22:50:41.062Z,62.55
2023-04-05T22:53:09.373Z,62.23
2023-04-05T22:55:39.831Z,62.74
2023-04-05T22:58:08.582Z,62.31
2023-04-05T23:00:37.854Z,62.17
2023-04-05T23:03:06.198Z,61.85
2023-04-05T23:05:36.626Z,61.71
2023-04-05T23:08:06.574Z,60.93
2023-04-05T23:10:34.842Z,61.26
2023-04-05T23:13:03.103Z,61.26
2023-04-05T23:15:31.583Z,61.67
2023-04-05T23:17:59.952Z,62.13
2023-04-05T23:20:28.280Z,62.56
2023-04-05T23:22:56.766Z,62.88
2023-04-05T23:25:26.456Z,62.40
2023-04-05T23:27:54.778Z,61.78
2023-04-05T23:30:23.078Z,61.17
2023-04-05T23:32:51.407Z,60.99
2023-04-05T23:35:19.764Z,61.35
2023-04-05T23:37:48.014Z,61.34
2023-04-05T23:40:16.524Z,61.10
2023-04-05T23:42:46.220Z,59.81
2023-04-05T23:45:14.541Z,59.32
2023-04-05T23:47:42.969Z,59.29
2023-04-05T23:50:11.817Z,59.26
2023-04-05T23:52:40.098Z,59.73
2023-04-05T23:55:09.642Z,59.85
2023-04-05T23:57:37.924Z,59.81
